sensor_id;sensor_type;location;lat;lon;timestamp;temperature;humidity
758;DHT22;363;48.764;9.172;2024-01-27T00:01:34;5.40;99.90
758;DHT22;363;48.764;9.172;2024-01-27T00:04:00;4.30;99.90
758;DHT22;363;48.764;9.172;2024-01-27T00:06:26;4.20;99.90
758;DHT22;363;48.764;9.172;2024-01-27T00:08:51;4.20;99.90
758;DHT22;363;48.764;9.172;2024-01-27T00:11:17;4.00;99.90
758;DHT22;363;48.764;9.172;2024-01-27T00:13:42;4.40;99.90
758;DHT22;363;48.764;9.172;2024-01-27T00:16:09;3.70;99.90
758;DHT22;363;48.764;9.172;2024-01-27T00:18:38;4.10;99.90
758;DHT22;363;48.764;9.172;2024-01-27T00:21:07;4.30;99.90
758;DHT22;363;48.764;9.172;2024-01-27T00:23:33;3.90;99.90
758;DHT22;363;48.764;9.172;2024-01-27T00:26:01;3.90;99.90
758;DHT22;363;48.764;9.172;2024-01-27T00:28:26;4.00;99.90
758;DHT22;363;48.764;9.172;2024-01-27T00:30:52;4.10;99.90
758;DHT22;363;48.764;9.172;2024-01-27T00:33:18;3.90;99.90
758;DHT22;363;48.764;9.172;2024-01-27T00:35:43;3.70;99.90
758;DHT22;363;48.764;9.172;2024-01-27T00:38:09;3.60;99.90
758;DHT22;363;48.764;9.172;2024-01-27T00:40:34;3.80;99.90
758;DHT22;363;48.764;9.172;2024-01-27T00:43:02;3.50;99.90
758;DHT22;363;48.764;9.172;2024-01-27T00:45:28;3.60;99.90
758;DHT22;363;48.764;9.172;2024-01-27T00:47:58;3.70;99.90
758;DHT22;363;48.764;9.172;2024-01-27T00:50:23;3.90;99.90
758;DHT22;363;48.764;9.172;2024-01-27T00:52:49;4.00;99.90
758;DHT22;363;48.764;9.172;2024-01-27T00:55:15;3.60;99.90
758;DHT22;363;48.764;9.172;2024-01-27T00:57:42;3.50;99.90
758;DHT22;363;48.764;9.172;2024-01-27T01:00:09;3.90;99.90
758;DHT22;363;48.764;9.172;2024-01-27T01:02:36;3.60;99.90
758;DHT22;363;48.764;9.172;2024-01-27T01:05:02;3.50;99.90
758;DHT22;363;48.764;9.172;2024-01-27T01:07:29;4.10;99.90
758;DHT22;363;48.764;9.172;2024-01-27T01:09:55;3.30;99.90
758;DHT22;363;48.764;9.172;2024-01-27T01:12:21;3.20;99.90
758;DHT22;363;48.764;9.172;2024-01-27T01:14:46;3.40;99.90
758;DHT22;363;48.764;9.172;2024-01-27T01:17:12;3.40;99.90
758;DHT22;363;48.764;9.172;2024-01-27T01:19:39;3.00;99.90
758;DHT22;363;48.764;9.172;2024-01-27T01:22:05;3.50;99.90
758;DHT22;363;48.764;9.172;2024-01-27T01:24:31;3.60;99.90
758;DHT22;363;48.764;9.172;2024-01-27T01:26:58;3.10;99.90
758;DHT22;363;48.764;9.172;2024-01-27T01:29:24;2.50;99.90
758;DHT22;363;48.764;9.172;2024-01-27T01:31:50;3.40;99.90
758;DHT22;363;48.764;9.172;2024-01-27T01:34:15;3.10;99.90
758;DHT22;363;48.764;9.172;2024-01-27T01:36:41;3.00;99.90
758;DHT22;363;48.764;9.172;2024-01-27T01:39:07;3.10;99.90
758;DHT22;363;48.764;9.172;2024-01-27T01:41:32;3.60;99.90
758;DHT22;363;48.764;9.172;2024-01-27T01:43:58;3.10;99.90
758;DHT22;363;48.764;9.172;2024-01-27T01:46:24;3.20;99.90
758;DHT22;363;48.764;9.172;2024-01-27T01:48:50;3.10;99.90
758;DHT22;363;48.764;9.172;2024-01-27T01:51:18;3.30;99.90
758;DHT22;363;48.764;9.172;2024-01-27T01:53:47;3.10;99.90
758;DHT22;363;48.764;9.172;2024-01-27T01:56:16;2.90;99.90
758;DHT22;363;48.764;9.172;2024-01-27T01:58:42;2.90;99.90
758;DHT22;363;48.764;9.172;2024-01-27T02:01:08;3.30;99.90
758;DHT22;363;48.764;9.172;2024-01-27T02:03:34;3.40;99.90
758;DHT22;363;48.764;9.172;2024-01-27T02:05:59;3.10;99.90
758;DHT22;363;48.764;9.172;2024-01-27T02:08:25;3.10;99.90
758;DHT22;363;48.764;9.172;2024-01-27T02:10:50;2.90;99.90
758;DHT22;363;48.764;9.172;2024-01-27T02:13:20;2.90;99.90
758;DHT22;363;48.764;9.172;2024-01-27T02:15:49;2.70;99.90
758;DHT22;363;48.764;9.172;2024-01-27T02:18:15;2.70;99.90
758;DHT22;363;48.764;9.172;2024-01-27T02:20:41;2.90;99.90
758;DHT22;363;48.764;9.172;2024-01-27T02:23:06;3.20;99.90
758;DHT22;363;48.764;9.172;2024-01-27T02:25:33;2.70;99.90
758;DHT22;363;48.764;9.172;2024-01-27T02:27:58;2.70;99.90
758;DHT22;363;48.764;9.172;2024-01-27T02:30:24;3.00;99.90
758;DHT22;363;48.764;9.172;2024-01-27T02:32:50;2.40;99.90
758;DHT22;363;48.764;9.172;2024-01-27T02:35:16;2.60;99.90
758;DHT22;363;48.764;9.172;2024-01-27T02:37:42;2.70;99.90
758;DHT22;363;48.764;9.172;2024-01-27T02:40:09;2.90;99.90
758;DHT22;363;48.764;9.172;2024-01-27T02:42:37;2.80;99.90
758;DHT22;363;48.764;9.172;2024-01-27T02:45:04;3.10;99.90
758;DHT22;363;48.764;9.172;2024-01-27T02:47:29;2.60;99.90
758;DHT22;363;48.764;9.172;2024-01-27T02:49:55;2.80;99.90
758;DHT22;363;48.764;9.172;2024-01-27T02:52:21;2.40;99.90
758;DHT22;363;48.764;9.172;2024-01-27T02:54:46;2.50;99.90
758;DHT22;363;48.764;9.172;2024-01-27T02:57:12;2.80;99.90
758;DHT22;363;48.764;9.172;2024-01-27T02:59:38;2.30;99.90
758;DHT22;363;48.764;9.172;2024-01-27T03:02:05;2.40;99.90
758;DHT22;363;48.764;9.172;2024-01-27T03:04:31;2.50;99.90
758;DHT22;363;48.764;9.172;2024-01-27T03:06:57;2.50;99.90
758;DHT22;363;48.764;9.172;2024-01-27T03:09:22;2.80;99.90
758;DHT22;363;48.764;9.172;2024-01-27T03:11:48;2.40;99.90
758;DHT22;363;48.764;9.172;2024-01-27T03:14:13;2.50;99.90
758;DHT22;363;48.764;9.172;2024-01-27T03:16:39;2.90;99.90
758;DHT22;363;48.764;9.172;2024-01-27T03:19:05;2.20;99.90
758;DHT22;363;48.764;9.172;2024-01-27T03:21:31;2.40;99.90
758;DHT22;363;48.764;9.172;2024-01-27T03:23:57;1.80;99.90
758;DHT22;363;48.764;9.172;2024-01-27T03:26:22;2.40;99.90
758;DHT22;363;48.764;9.172;2024-01-27T03:28:48;2.90;99.90
758;DHT22;363;48.764;9.172;2024-01-27T03:31:13;2.40;99.90
758;DHT22;363;48.764;9.172;2024-01-27T03:33:39;2.30;99.90
758;DHT22;363;48.764;9.172;2024-01-27T03:36:12;2.50;99.90
758;DHT22;363;48.764;9.172;2024-01-27T03:38:39;2.20;99.90
758;DHT22;363;48.764;9.172;2024-01-27T03:41:05;2.60;99.90
758;DHT22;363;48.764;9.172;2024-01-27T03:43:31;2.20;99.90
758;DHT22;363;48.764;9.172;2024-01-27T03:45:58;2.40;99.90
758;DHT22;363;48.764;9.172;2024-01-27T03:48:24;2.30;99.90
758;DHT22;363;48.764;9.172;2024-01-27T03:50:50;2.40;99.90
758;DHT22;363;48.764;9.172;2024-01-27T03:53:16;2.30;99.90
758;DHT22;363;48.764;9.172;2024-01-27T03:55:41;2.20;99.90
758;DHT22;363;48.764;9.172;2024-01-27T03:58:07;2.40;99.90
758;DHT22;363;48.764;9.172;2024-01-27T04:00:32;2.40;99.90
758;DHT22;363;48.764;9.172;2024-01-27T04:02:59;2.40;99.90
758;DHT22;363;48.764;9.172;2024-01-27T04:05:25;2.30;99.90
758;DHT22;363;48.764;9.172;2024-01-27T04:07:50;2.40;99.90
758;DHT22;363;48.764;9.172;2024-01-27T04:10:17;2.40;99.90
758;DHT22;363;48.764;9.172;2024-01-27T04:12:43;2.40;99.90
758;DHT22;363;48.764;9.172;2024-01-27T04:15:09;2.30;99.90
758;DHT22;363;48.764;9.172;2024-01-27T04:17:35;2.60;99.90
758;DHT22;363;48.764;9.172;2024-01-27T04:20:01;2.20;99.90
758;DHT22;363;48.764;9.172;2024-01-27T04:22:26;1.60;99.90
758;DHT22;363;48.764;9.172;2024-01-27T04:24:53;2.70;99.90
758;DHT22;363;48.764;9.172;2024-01-27T04:27:19;2.20;99.90
758;DHT22;363;48.764;9.172;2024-01-27T04:29:45;2.70;99.90
758;DHT22;363;48.764;9.172;2024-01-27T04:32:12;2.60;99.90
758;DHT22;363;48.764;9.172;2024-01-27T04:34:38;2.30;99.90
758;DHT22;363;48.764;9.172;2024-01-27T04:37:04;2.30;99.90
758;DHT22;363;48.764;9.172;2024-01-27T04:39:29;2.40;99.90
758;DHT22;363;48.764;9.172;2024-01-27T04:41:55;2.60;99.90
758;DHT22;363;48.764;9.172;2024-01-27T04:44:21;2.10;99.90
758;DHT22;363;48.764;9.172;2024-01-27T04:46:46;2.40;99.90
758;DHT22;363;48.764;9.172;2024-01-27T04:49:13;2.10;99.90
758;DHT22;363;48.764;9.172;2024-01-27T04:51:39;2.20;99.90
758;DHT22;363;48.764;9.172;2024-01-27T04:54:05;2.00;99.90
758;DHT22;363;48.764;9.172;2024-01-27T04:56:30;2.30;99.90
758;DHT22;363;48.764;9.172;2024-01-27T04:58:55;2.20;99.90
758;DHT22;363;48.764;9.172;2024-01-27T05:01:21;2.20;99.90
758;DHT22;363;48.764;9.172;2024-01-27T05:03:47;2.00;99.90
758;DHT22;363;48.764;9.172;2024-01-27T05:06:12;2.10;99.90
758;DHT22;363;48.764;9.172;2024-01-27T05:08:38;1.70;99.90
758;DHT22;363;48.764;9.172;2024-01-27T05:11:04;1.80;99.90
758;DHT22;363;48.764;9.172;2024-01-27T05:13:29;2.20;99.90
758;DHT22;363;48.764;9.172;2024-01-27T05:15:56;2.10;99.90
758;DHT22;363;48.764;9.172;2024-01-27T05:18:22;2.10;99.90
758;DHT22;363;48.764;9.172;2024-01-27T05:20:47;1.90;99.90
758;DHT22;363;48.764;9.172;2024-01-27T05:23:13;1.70;99.90
758;DHT22;363;48.764;9.172;2024-01-27T05:25:38;2.00;99.90
758;DHT22;363;48.764;9.172;2024-01-27T05:28:05;2.10;99.90
758;DHT22;363;48.764;9.172;2024-01-27T05:30:30;1.90;99.90
758;DHT22;363;48.764;9.172;2024-01-27T05:32:56;1.90;99.90
758;DHT22;363;48.764;9.172;2024-01-27T05:35:21;1.60;99.90
758;DHT22;363;48.764;9.172;2024-01-27T05:37:47;1.90;99.90
758;DHT22;363;48.764;9.172;2024-01-27T05:40:12;1.80;99.90
758;DHT22;363;48.764;9.172;2024-01-27T05:42:38;1.80;99.90
758;DHT22;363;48.764;9.172;2024-01-27T05:45:06;1.90;99.90
758;DHT22;363;48.764;9.172;2024-01-27T05:47:32;1.80;99.90
758;DHT22;363;48.764;9.172;2024-01-27T05:49:57;1.60;99.90
758;DHT22;363;48.764;9.172;2024-01-27T05:52:23;2.00;99.90
758;DHT22;363;48.764;9.172;2024-01-27T05:54:50;1.90;99.90
758;DHT22;363;48.764;9.172;2024-01-27T05:57:16;1.70;99.90
758;DHT22;363;48.764;9.172;2024-01-27T05:59:41;1.70;99.90
758;DHT22;363;48.764;9.172;2024-01-27T06:02:07;1.70;99.90
758;DHT22;363;48.764;9.172;2024-01-27T06:04:32;2.30;99.90
758;DHT22;363;48.764;9.172;2024-01-27T06:06:58;1.60;99.90
758;DHT22;363;48.764;9.172;2024-01-27T06:09:24;1.60;99.90
758;DHT22;363;48.764;9.172;2024-01-27T06:11:49;1.50;99.90
758;DHT22;363;48.764;9.172;2024-01-27T06:14:15;1.60;99.90
758;DHT22;363;48.764;9.172;2024-01-27T06:16:40;1.60;99.90
758;DHT22;363;48.764;9.172;2024-01-27T06:19:06;1.60;99.90
758;DHT22;363;48.764;9.172;2024-01-27T06:21:31;1.80;99.90
758;DHT22;363;48.764;9.172;2024-01-27T06:23:58;1.90;99.90
758;DHT22;363;48.764;9.172;2024-01-27T06:26:23;1.70;99.90
758;DHT22;363;48.764;9.172;2024-01-27T06:28:49;1.50;99.90
758;DHT22;363;48.764;9.172;2024-01-27T06:31:15;1.90;99.90
758;DHT22;363;48.764;9.172;2024-01-27T06:33:41;1.50;99.90
758;DHT22;363;48.764;9.172;2024-01-27T06:36:06;1.50;99.90
758;DHT22;363;48.764;9.172;2024-01-27T06:38:36;1.70;99.90
758;DHT22;363;48.764;9.172;2024-01-27T06:41:03;1.60;99.90
758;DHT22;363;48.764;9.172;2024-01-27T06:43:29;1.70;99.90
758;DHT22;363;48.764;9.172;2024-01-27T06:45:54;2.10;99.90
758;DHT22;363;48.764;9.172;2024-01-27T06:48:22;1.70;99.90
758;DHT22;363;48.764;9.172;2024-01-27T06:50:50;1.40;99.90
758;DHT22;363;48.764;9.172;2024-01-27T06:53:16;1.80;99.90
758;DHT22;363;48.764;9.172;2024-01-27T06:55:41;1.50;99.90
758;DHT22;363;48.764;9.172;2024-01-27T06:58:06;1.70;99.90
758;DHT22;363;48.764;9.172;2024-01-27T07:00:32;1.50;99.90
758;DHT22;363;48.764;9.172;2024-01-27T07:02:58;1.40;99.90
758;DHT22;363;48.764;9.172;2024-01-27T07:05:23;1.00;99.90
758;DHT22;363;48.764;9.172;2024-01-27T07:07:49;1.30;99.90
758;DHT22;363;48.764;9.172;2024-01-27T07:10:15;1.90;99.90
758;DHT22;363;48.764;9.172;2024-01-27T07:12:40;1.60;99.90
758;DHT22;363;48.764;9.172;2024-01-27T07:15:06;1.70;99.90
758;DHT22;363;48.764;9.172;2024-01-27T07:17:32;1.50;99.90
758;DHT22;363;48.764;9.172;2024-01-27T07:19:57;1.80;99.90
758;DHT22;363;48.764;9.172;2024-01-27T07:22:23;1.60;99.90
758;DHT22;363;48.764;9.172;2024-01-27T07:24:49;1.50;99.90
758;DHT22;363;48.764;9.172;2024-01-27T07:27:17;1.60;99.90
758;DHT22;363;48.764;9.172;2024-01-27T07:29:43;1.70;99.90
758;DHT22;363;48.764;9.172;2024-01-27T07:32:09;1.80;99.90
758;DHT22;363;48.764;9.172;2024-01-27T07:34:40;1.60;99.90
758;DHT22;363;48.764;9.172;2024-01-27T07:37:06;2.20;99.90
758;DHT22;363;48.764;9.172;2024-01-27T07:39:31;1.50;99.90
758;DHT22;363;48.764;9.172;2024-01-27T07:41:58;1.50;99.90
758;DHT22;363;48.764;9.172;2024-01-27T07:44:24;1.50;99.90
758;DHT22;363;48.764;9.172;2024-01-27T07:46:49;1.60;99.90
758;DHT22;363;48.764;9.172;2024-01-27T07:49:15;1.80;99.90
758;DHT22;363;48.764;9.172;2024-01-27T07:51:41;2.00;99.90
758;DHT22;363;48.764;9.172;2024-01-27T07:54:06;1.50;99.90
758;DHT22;363;48.764;9.172;2024-01-27T07:56:32;1.70;99.90
758;DHT22;363;48.764;9.172;2024-01-27T07:58:58;1.30;99.90
758;DHT22;363;48.764;9.172;2024-01-27T08:01:23;2.00;99.90
758;DHT22;363;48.764;9.172;2024-01-27T08:03:49;1.80;99.90
758;DHT22;363;48.764;9.172;2024-01-27T08:06:20;1.80;99.90
758;DHT22;363;48.764;9.172;2024-01-27T08:08:47;1.30;99.90
758;DHT22;363;48.764;9.172;2024-01-27T08:11:14;1.50;99.90
758;DHT22;363;48.764;9.172;2024-01-27T08:13:40;1.50;99.90
758;DHT22;363;48.764;9.172;2024-01-27T08:16:06;1.80;99.90
758;DHT22;363;48.764;9.172;2024-01-27T08:18:35;2.30;99.90
758;DHT22;363;48.764;9.172;2024-01-27T08:21:00;1.40;99.90
758;DHT22;363;48.764;9.172;2024-01-27T08:23:26;1.70;99.90
758;DHT22;363;48.764;9.172;2024-01-27T08:25:51;2.00;99.90
758;DHT22;363;48.764;9.172;2024-01-27T08:28:19;2.10;99.90
758;DHT22;363;48.764;9.172;2024-01-27T08:30:44;1.80;99.90
758;DHT22;363;48.764;9.172;2024-01-27T08:33:10;2.10;99.90
758;DHT22;363;48.764;9.172;2024-01-27T08:35:35;2.10;99.90
758;DHT22;363;48.764;9.172;2024-01-27T08:38:01;2.20;99.90
758;DHT22;363;48.764;9.172;2024-01-27T08:40:28;2.30;99.90
758;DHT22;363;48.764;9.172;2024-01-27T08:42:54;2.10;99.90
758;DHT22;363;48.764;9.172;2024-01-27T08:45:20;2.40;99.90
758;DHT22;363;48.764;9.172;2024-01-27T08:47:45;2.30;99.90
758;DHT22;363;48.764;9.172;2024-01-27T08:50:11;2.60;99.90
758;DHT22;363;48.764;9.172;2024-01-27T08:52:36;2.90;99.90
758;DHT22;363;48.764;9.172;2024-01-27T08:55:02;2.50;99.90
758;DHT22;363;48.764;9.172;2024-01-27T08:57:28;3.00;99.90
758;DHT22;363;48.764;9.172;2024-01-27T08:59:53;2.10;99.90
758;DHT22;363;48.764;9.172;2024-01-27T09:02:19;3.00;99.90
758;DHT22;363;48.764;9.172;2024-01-27T09:04:45;3.00;99.90
758;DHT22;363;48.764;9.172;2024-01-27T09:07:11;2.80;99.90
758;DHT22;363;48.764;9.172;2024-01-27T09:09:37;3.10;99.90
758;DHT22;363;48.764;9.172;2024-01-27T09:12:04;3.60;99.90
758;DHT22;363;48.764;9.172;2024-01-27T09:14:29;3.30;99.90
758;DHT22;363;48.764;9.172;2024-01-27T09:16:55;3.60;99.90
758;DHT22;363;48.764;9.172;2024-01-27T09:19:20;3.60;99.90
758;DHT22;363;48.764;9.172;2024-01-27T09:21:46;4.60;99.90
758;DHT22;363;48.764;9.172;2024-01-27T09:24:12;6.00;99.90
758;DHT22;363;48.764;9.172;2024-01-27T09:26:38;7.40;99.90
758;DHT22;363;48.764;9.172;2024-01-27T09:29:03;8.90;99.90
758;DHT22;363;48.764;9.172;2024-01-27T09:31:29;10.00;99.90
758;DHT22;363;48.764;9.172;2024-01-27T09:33:54;11.00;97.80
758;DHT22;363;48.764;9.172;2024-01-27T09:36:20;11.20;96.00
758;DHT22;363;48.764;9.172;2024-01-27T09:38:46;11.30;95.30
758;DHT22;363;48.764;9.172;2024-01-27T09:41:15;12.50;93.30
758;DHT22;363;48.764;9.172;2024-01-27T09:43:45;12.10;92.00
758;DHT22;363;48.764;9.172;2024-01-27T09:46:11;11.20;93.50
758;DHT22;363;48.764;9.172;2024-01-27T09:48:37;10.90;94.50
758;DHT22;363;48.764;9.172;2024-01-27T09:51:05;10.60;94.10
758;DHT22;363;48.764;9.172;2024-01-27T09:53:30;10.30;94.40
758;DHT22;363;48.764;9.172;2024-01-27T09:55:58;11.50;95.00
758;DHT22;363;48.764;9.172;2024-01-27T09:58:31;11.80;92.80
758;DHT22;363;48.764;9.172;2024-01-27T10:00:59;13.30;91.20
758;DHT22;363;48.764;9.172;2024-01-27T10:03:25;12.70;90.30
758;DHT22;363;48.764;9.172;2024-01-27T10:05:56;12.80;90.90
758;DHT22;363;48.764;9.172;2024-01-27T10:08:23;12.10;90.90
758;DHT22;363;48.764;9.172;2024-01-27T10:10:56;13.60;89.70
758;DHT22;363;48.764;9.172;2024-01-27T10:13:22;14.40;85.20
758;DHT22;363;48.764;9.172;2024-01-27T10:16:05;15.20;82.20
758;DHT22;363;48.764;9.172;2024-01-27T10:18:32;15.60;78.60
758;DHT22;363;48.764;9.172;2024-01-27T10:21:00;16.50;80.10
758;DHT22;363;48.764;9.172;2024-01-27T10:23:39;13.80;81.80
758;DHT22;363;48.764;9.172;2024-01-27T10:26:05;12.40;83.40
758;DHT22;363;48.764;9.172;2024-01-27T10:28:30;12.50;86.40
758;DHT22;363;48.764;9.172;2024-01-27T10:31:08;12.80;87.20
758;DHT22;363;48.764;9.172;2024-01-27T10:33:33;11.50;88.30
758;DHT22;363;48.764;9.172;2024-01-27T10:35:59;12.00;90.80
758;DHT22;363;48.764;9.172;2024-01-27T10:38:39;11.90;88.90
758;DHT22;363;48.764;9.172;2024-01-27T10:41:08;12.30;88.20
758;DHT22;363;48.764;9.172;2024-01-27T10:43:38;13.40;84.80
758;DHT22;363;48.764;9.172;2024-01-27T10:46:08;14.50;80.70
758;DHT22;363;48.764;9.172;2024-01-27T10:48:35;15.60;77.10
758;DHT22;363;48.764;9.172;2024-01-27T10:51:08;15.90;74.10
758;DHT22;363;48.764;9.172;2024-01-27T10:53:35;16.30;71.00
758;DHT22;363;48.764;9.172;2024-01-27T10:56:03;16.40;70.50
758;DHT22;363;48.764;9.172;2024-01-27T10:58:33;16.40;69.00
758;DHT22;363;48.764;9.172;2024-01-27T11:01:10;16.60;69.90
758;DHT22;363;48.764;9.172;2024-01-27T11:03:38;17.20;67.90
758;DHT22;363;48.764;9.172;2024-01-27T11:06:08;17.00;65.90
758;DHT22;363;48.764;9.172;2024-01-27T11:08:34;16.40;68.50
758;DHT22;363;48.764;9.172;2024-01-27T11:11:01;16.80;69.20
758;DHT22;363;48.764;9.172;2024-01-27T11:13:32;17.40;68.40
758;DHT22;363;48.764;9.172;2024-01-27T11:15:58;16.30;69.50
758;DHT22;363;48.764;9.172;2024-01-27T11:18:24;14.90;70.20
758;DHT22;363;48.764;9.172;2024-01-27T11:20:58;14.10;72.80
758;DHT22;363;48.764;9.172;2024-01-27T11:23:34;13.60;75.20
758;DHT22;363;48.764;9.172;2024-01-27T11:26:05;13.90;75.20
758;DHT22;363;48.764;9.172;2024-01-27T11:28:31;14.70;73.80
758;DHT22;363;48.764;9.172;2024-01-27T11:30:56;14.30;73.70
758;DHT22;363;48.764;9.172;2024-01-27T11:33:25;16.50;76.20
758;DHT22;363;48.764;9.172;2024-01-27T11:36:04;13.80;73.90
758;DHT22;363;48.764;9.172;2024-01-27T11:38:33;13.30;76.40
758;DHT22;363;48.764;9.172;2024-01-27T11:41:02;13.30;78.90
758;DHT22;363;48.764;9.172;2024-01-27T11:43:27;13.80;78.70
758;DHT22;363;48.764;9.172;2024-01-27T11:46:00;14.20;76.50
758;DHT22;363;48.764;9.172;2024-01-27T11:48:26;13.10;77.20
758;DHT22;363;48.764;9.172;2024-01-27T11:51:06;12.80;80.40
758;DHT22;363;48.764;9.172;2024-01-27T11:53:33;12.60;81.80
758;DHT22;363;48.764;9.172;2024-01-27T11:55:59;13.00;80.70
758;DHT22;363;48.764;9.172;2024-01-27T11:58:25;12.90;80.50
758;DHT22;363;48.764;9.172;2024-01-27T12:00:52;12.60;81.50
758;DHT22;363;48.764;9.172;2024-01-27T12:03:18;13.00;81.90
758;DHT22;363;48.764;9.172;2024-01-27T12:05:43;12.20;81.30
758;DHT22;363;48.764;9.172;2024-01-27T12:08:09;11.60;81.80
758;DHT22;363;48.764;9.172;2024-01-27T12:10:35;11.20;83.70
758;DHT22;363;48.764;9.172;2024-01-27T12:13:01;11.50;85.30
758;DHT22;363;48.764;9.172;2024-01-27T12:15:26;11.50;85.80
758;DHT22;363;48.764;9.172;2024-01-27T12:17:52;11.20;86.80
758;DHT22;363;48.764;9.172;2024-01-27T12:20:18;11.20;88.30
758;DHT22;363;48.764;9.172;2024-01-27T12:22:44;10.30;88.40
758;DHT22;363;48.764;9.172;2024-01-27T12:25:11;10.30;89.80
758;DHT22;363;48.764;9.172;2024-01-27T12:27:38;10.50;90.10
758;DHT22;363;48.764;9.172;2024-01-27T12:30:04;10.80;90.20
758;DHT22;363;48.764;9.172;2024-01-27T12:32:31;10.50;90.40
758;DHT22;363;48.764;9.172;2024-01-27T12:34:58;11.30;90.80
758;DHT22;363;48.764;9.172;2024-01-27T12:37:27;10.50;90.30
758;DHT22;363;48.764;9.172;2024-01-27T12:39:53;10.70;90.20
758;DHT22;363;48.764;9.172;2024-01-27T12:42:19;10.60;90.00
758;DHT22;363;48.764;9.172;2024-01-27T12:44:44;10.90;90.00
758;DHT22;363;48.764;9.172;2024-01-27T12:47:10;10.60;90.10
758;DHT22;363;48.764;9.172;2024-01-27T12:49:36;10.90;90.30
758;DHT22;363;48.764;9.172;2024-01-27T12:52:02;10.30;89.40
758;DHT22;363;48.764;9.172;2024-01-27T12:54:28;10.70;87.50
758;DHT22;363;48.764;9.172;2024-01-27T12:56:54;11.30;88.20
758;DHT22;363;48.764;9.172;2024-01-27T12:59:20;10.10;86.00
758;DHT22;363;48.764;9.172;2024-01-27T13:01:45;10.20;86.80
758;DHT22;363;48.764;9.172;2024-01-27T13:04:11;9.90;87.60
758;DHT22;363;48.764;9.172;2024-01-27T13:06:37;11.60;89.00
758;DHT22;363;48.764;9.172;2024-01-27T13:09:03;10.00;86.70
758;DHT22;363;48.764;9.172;2024-01-27T13:11:29;10.00;87.00
758;DHT22;363;48.764;9.172;2024-01-27T13:13:55;9.90;88.60
758;DHT22;363;48.764;9.172;2024-01-27T13:16:20;9.90;88.50
758;DHT22;363;48.764;9.172;2024-01-27T13:18:46;9.80;85.30
758;DHT22;363;48.764;9.172;2024-01-27T13:21:11;10.30;82.90
758;DHT22;363;48.764;9.172;2024-01-27T13:23:37;9.70;84.30
758;DHT22;363;48.764;9.172;2024-01-27T13:26:03;9.40;85.60
758;DHT22;363;48.764;9.172;2024-01-27T13:28:28;9.80;87.30
758;DHT22;363;48.764;9.172;2024-01-27T13:30:54;10.40;86.00
758;DHT22;363;48.764;9.172;2024-01-27T13:33:20;10.30;84.20
758;DHT22;363;48.764;9.172;2024-01-27T13:35:46;9.50;85.60
758;DHT22;363;48.764;9.172;2024-01-27T13:38:15;9.40;85.70
758;DHT22;363;48.764;9.172;2024-01-27T13:40:44;9.60;85.10
758;DHT22;363;48.764;9.172;2024-01-27T13:43:10;9.50;81.20
758;DHT22;363;48.764;9.172;2024-01-27T13:45:35;9.30;82.00
758;DHT22;363;48.764;9.172;2024-01-27T13:48:01;10.50;82.50
758;DHT22;363;48.764;9.172;2024-01-27T13:50:27;9.90;80.80
758;DHT22;363;48.764;9.172;2024-01-27T13:52:55;9.70;80.20
758;DHT22;363;48.764;9.172;2024-01-27T13:55:21;9.80;81.00
758;DHT22;363;48.764;9.172;2024-01-27T13:57:48;9.80;81.00
758;DHT22;363;48.764;9.172;2024-01-27T14:00:13;9.40;82.20
758;DHT22;363;48.764;9.172;2024-01-27T14:02:39;9.60;81.90
758;DHT22;363;48.764;9.172;2024-01-27T14:05:05;9.90;82.80
758;DHT22;363;48.764;9.172;2024-01-27T14:07:32;9.60;85.00
758;DHT22;363;48.764;9.172;2024-01-27T14:09:57;8.90;84.10
758;DHT22;363;48.764;9.172;2024-01-27T14:12:23;8.80;86.10
758;DHT22;363;48.764;9.172;2024-01-27T14:14:50;9.90;88.70
758;DHT22;363;48.764;9.172;2024-01-27T14:17:17;9.30;86.70
758;DHT22;363;48.764;9.172;2024-01-27T14:19:46;10.00;85.00
758;DHT22;363;48.764;9.172;2024-01-27T14:22:12;9.50;84.30
758;DHT22;363;48.764;9.172;2024-01-27T14:24:38;9.40;85.30
758;DHT22;363;48.764;9.172;2024-01-27T14:27:06;9.70;85.50
758;DHT22;363;48.764;9.172;2024-01-27T14:29:32;9.50;85.40
758;DHT22;363;48.764;9.172;2024-01-27T14:31:58;9.80;91.00
758;DHT22;363;48.764;9.172;2024-01-27T14:34:23;9.50;85.60
758;DHT22;363;48.764;9.172;2024-01-27T14:36:49;9.90;86.90
758;DHT22;363;48.764;9.172;2024-01-27T14:39:14;9.40;87.80
758;DHT22;363;48.764;9.172;2024-01-27T14:41:40;9.90;89.10
758;DHT22;363;48.764;9.172;2024-01-27T14:44:05;9.20;89.70
758;DHT22;363;48.764;9.172;2024-01-27T14:46:31;9.30;90.30
758;DHT22;363;48.764;9.172;2024-01-27T14:48:57;9.50;90.70
758;DHT22;363;48.764;9.172;2024-01-27T14:51:23;9.20;91.20
758;DHT22;363;48.764;9.172;2024-01-27T14:53:48;9.20;91.00
758;DHT22;363;48.764;9.172;2024-01-27T14:56:15;9.00;92.10
758;DHT22;363;48.764;9.172;2024-01-27T14:58:40;9.10;92.20
758;DHT22;363;48.764;9.172;2024-01-27T15:01:06;9.20;92.60
758;DHT22;363;48.764;9.172;2024-01-27T15:03:31;8.90;92.70
758;DHT22;363;48.764;9.172;2024-01-27T15:05:57;9.40;93.10
758;DHT22;363;48.764;9.172;2024-01-27T15:08:23;8.90;93.20
758;DHT22;363;48.764;9.172;2024-01-27T15:10:49;8.70;93.70
758;DHT22;363;48.764;9.172;2024-01-27T15:13:14;9.10;94.20
758;DHT22;363;48.764;9.172;2024-01-27T15:15:42;8.60;94.40
758;DHT22;363;48.764;9.172;2024-01-27T15:18:08;10.30;94.60
758;DHT22;363;48.764;9.172;2024-01-27T15:20:35;8.90;94.50
758;DHT22;363;48.764;9.172;2024-01-27T15:23:02;8.50;94.50
758;DHT22;363;48.764;9.172;2024-01-27T15:25:28;8.70;95.00
758;DHT22;363;48.764;9.172;2024-01-27T15:27:54;8.60;95.50
758;DHT22;363;48.764;9.172;2024-01-27T15:30:20;8.70;94.70
758;DHT22;363;48.764;9.172;2024-01-27T15:32:46;8.50;94.70
758;DHT22;363;48.764;9.172;2024-01-27T15:35:12;8.80;95.10
758;DHT22;363;48.764;9.172;2024-01-27T15:37:37;8.50;95.40
758;DHT22;363;48.764;9.172;2024-01-27T15:40:05;8.40;95.50
758;DHT22;363;48.764;9.172;2024-01-27T15:42:30;8.60;96.00
758;DHT22;363;48.764;9.172;2024-01-27T15:44:56;8.60;95.90
758;DHT22;363;48.764;9.172;2024-01-27T15:47:21;8.40;96.40
758;DHT22;363;48.764;9.172;2024-01-27T15:49:47;8.30;96.30
758;DHT22;363;48.764;9.172;2024-01-27T15:52:18;8.20;96.40
758;DHT22;363;48.764;9.172;2024-01-27T15:54:44;8.10;96.80
758;DHT22;363;48.764;9.172;2024-01-27T15:57:09;8.60;97.00
758;DHT22;363;48.764;9.172;2024-01-27T15:59:35;8.20;97.00
758;DHT22;363;48.764;9.172;2024-01-27T16:02:00;7.90;97.10
758;DHT22;363;48.764;9.172;2024-01-27T16:04:26;8.20;97.50
758;DHT22;363;48.764;9.172;2024-01-27T16:06:51;8.10;97.50
758;DHT22;363;48.764;9.172;2024-01-27T16:09:17;8.10;97.60
758;DHT22;363;48.764;9.172;2024-01-27T16:11:43;7.70;97.50
758;DHT22;363;48.764;9.172;2024-01-27T16:14:08;7.70;98.00
758;DHT22;363;48.764;9.172;2024-01-27T16:16:34;7.30;98.30
758;DHT22;363;48.764;9.172;2024-01-27T16:19:00;7.50;98.20
758;DHT22;363;48.764;9.172;2024-01-27T16:21:25;7.70;98.00
758;DHT22;363;48.764;9.172;2024-01-27T16:23:51;7.60;98.70
758;DHT22;363;48.764;9.172;2024-01-27T16:26:16;7.10;99.00
758;DHT22;363;48.764;9.172;2024-01-27T16:28:42;7.00;99.70
758;DHT22;363;48.764;9.172;2024-01-27T16:31:09;5.30;99.80
758;DHT22;363;48.764;9.172;2024-01-27T16:33:35;6.80;99.90
758;DHT22;363;48.764;9.172;2024-01-27T16:36:00;6.50;99.90
758;DHT22;363;48.764;9.172;2024-01-27T16:38:26;6.60;99.90
758;DHT22;363;48.764;9.172;2024-01-27T16:40:51;6.60;99.90